sensor_id;sensor_type;location;lat;lon;timestamp;pressure;altitude;pressure_sealevel;temperature;humidity
29467;BME280;60968;37.490;-122.288;2023-04-26T00:02:45;98488.59;;;22.17;30.20
29467;BME280;60968;37.490;-122.288;2023-04-26T00:05:46;98489.25;;;21.95;30.09
29467;BME280;60968;37.490;-122.288;2023-04-26T00:08:47;98488.19;;;21.85;30.88
29467;BME280;60968;37.490;-122.288;2023-04-26T00:11:48;98486.81;;;21.66;30.89
29467;BME280;60968;37.490;-122.288;2023-04-26T00:14:49;98483.56;;;21.48;30.77
29467;BME280;60968;37.490;-122.288;2023-04-26T00:17:50;98483.69;;;21.47;30.70
29467;BME280;60968;37.490;-122.288;2023-04-26T00:20:51;98494.28;;;21.47;31.28
29467;BME280;60968;37.490;-122.288;2023-04-26T00:23:52;98494.03;;;21.37;30.33
29467;BME280;60968;37.490;-122.288;2023-04-26T00:26:54;98496.88;;;21.21;31.17
29467;BME280;60968;37.490;-122.288;2023-04-26T00:29:55;98492.72;;;21.17;31.46
29467;BME280;60968;37.490;-122.288;2023-04-26T00:32:56;98493.13;;;21.11;30.82
29467;BME280;60968;37.490;-122.288;2023-04-26T00:36:00;98489.84;;;21.07;31.25
29467;BME280;60968;37.490;-122.288;2023-04-26T00:39:01;98485.22;;;20.96;31.23
29467;BME280;60968;37.490;-122.288;2023-04-26T00:42:05;98490.84;;;20.92;31.03
29467;BME280;60968;37.490;-122.288;2023-04-26T00:45:06;98490.94;;;20.90;30.87
29467;BME280;60968;37.490;-122.288;2023-04-26T00:48:07;98489.63;;;20.83;30.89
29467;BME280;60968;37.490;-122.288;2023-04-26T00:51:09;98485.66;;;20.76;30.91
29467;BME280;60968;37.490;-122.288;2023-04-26T00:54:12;98489.19;;;20.76;31.43
29467;BME280;60968;37.490;-122.288;2023-04-26T00:57:15;98490.13;;;20.75;31.08
29467;BME280;60968;37.490;-122.288;2023-04-26T01:00:17;98487.94;;;20.67;31.01
29467;BME280;60968;37.490;-122.288;2023-04-26T01:03:18;98493.81;;;20.58;31.33
29467;BME280;60968;37.490;-122.288;2023-04-26T01:06:20;98502.13;;;20.52;31.23
29467;BME280;60968;37.490;-122.288;2023-04-26T01:09:23;98495.53;;;20.45;30.99
29467;BME280;60968;37.490;-122.288;2023-04-26T01:12:24;98498.28;;;20.29;29.94
29467;BME280;60968;37.490;-122.288;2023-04-26T01:15:26;98488.88;;;20.10;29.90
29467;BME280;60968;37.490;-122.288;2023-04-26T01:18:27;98497.44;;;19.99;30.64
29467;BME280;60968;37.490;-122.288;2023-04-26T01:21:28;98495.44;;;19.88;30.41
29467;BME280;60968;37.490;-122.288;2023-04-26T01:24:30;98491.72;;;19.77;30.51
29467;BME280;60968;37.490;-122.288;2023-04-26T01:27:32;98492.38;;;19.66;30.54
29467;BME280;60968;37.490;-122.288;2023-04-26T01:30:33;98494.50;;;19.45;31.70
29467;BME280;60968;37.490;-122.288;2023-04-26T01:33:34;98497.28;;;19.27;30.90
29467;BME280;60968;37.490;-122.288;2023-04-26T01:36:34;98500.63;;;19.15;31.06
29467;BME280;60968;37.490;-122.288;2023-04-26T01:39:35;98497.66;;;19.05;30.64
29467;BME280;60968;37.490;-122.288;2023-04-26T01:42:36;98503.63;;;18.93;31.06
29467;BME280;60968;37.490;-122.288;2023-04-26T01:45:37;98498.84;;;18.83;31.41
29467;BME280;60968;37.490;-122.288;2023-04-26T01:48:40;98505.66;;;18.72;31.37
29467;BME280;60968;37.490;-122.288;2023-04-26T01:51:43;98507.94;;;18.62;31.33
29467;BME280;60968;37.490;-122.288;2023-04-26T01:54:44;98517.22;;;18.53;31.00
29467;BME280;60968;37.490;-122.288;2023-04-26T01:57:48;98500.03;;;18.46;31.09
29467;BME280;60968;37.490;-122.288;2023-04-26T02:00:49;98508.38;;;18.38;31.92
29467;BME280;60968;37.490;-122.288;2023-04-26T02:03:51;98503.16;;;18.37;30.92
29467;BME280;60968;37.490;-122.288;2023-04-26T02:06:52;98499.69;;;18.36;31.63
29467;BME280;60968;37.490;-122.288;2023-04-26T02:09:53;98504.69;;;18.25;31.17
29467;BME280;60968;37.490;-122.288;2023-04-26T02:12:54;98504.78;;;18.23;31.56
29467;BME280;60968;37.490;-122.288;2023-04-26T02:15:55;98508.34;;;18.22;32.05
29467;BME280;60968;37.490;-122.288;2023-04-26T02:18:56;98509.16;;;18.07;32.76
29467;BME280;60968;37.490;-122.288;2023-04-26T02:21:57;98510.81;;;17.92;32.75
29467;BME280;60968;37.490;-122.288;2023-04-26T02:24:58;98517.69;;;17.77;33.50
29467;BME280;60968;37.490;-122.288;2023-04-26T02:27:59;98520.66;;;17.53;33.85
29467;BME280;60968;37.490;-122.288;2023-04-26T02:31:01;98524.84;;;17.40;33.95
29467;BME280;60968;37.490;-122.288;2023-04-26T02:34:02;98520.19;;;17.27;33.49
29467;BME280;60968;37.490;-122.288;2023-04-26T02:37:03;98520.34;;;17.24;33.04
29467;BME280;60968;37.490;-122.288;2023-04-26T02:40:06;98524.03;;;17.20;33.38
29467;BME280;60968;37.490;-122.288;2023-04-26T02:43:10;98528.03;;;17.10;33.52
29467;BME280;60968;37.490;-122.288;2023-04-26T02:46:11;98527.78;;;16.97;34.13
29467;BME280;60968;37.490;-122.288;2023-04-26T02:49:13;98537.00;;;16.87;33.81
29467;BME280;60968;37.490;-122.288;2023-04-26T02:52:14;98538.16;;;16.81;33.65
29467;BME280;60968;37.490;-122.288;2023-04-26T02:55:15;98537.34;;;16.79;32.73
29467;BME280;60968;37.490;-122.288;2023-04-26T02:58:16;98544.41;;;16.78;33.17
29467;BME280;60968;37.490;-122.288;2023-04-26T03:01:17;98543.91;;;16.70;33.41
29467;BME280;60968;37.490;-122.288;2023-04-26T03:04:18;98539.09;;;16.61;34.00
29467;BME280;60968;37.490;-122.288;2023-04-26T03:07:21;98541.28;;;16.51;34.30
29467;BME280;60968;37.490;-122.288;2023-04-26T03:10:22;98547.69;;;16.45;34.02
29467;BME280;60968;37.490;-122.288;2023-04-26T03:13:24;98553.94;;;16.43;34.89
29467;BME280;60968;37.490;-122.288;2023-04-26T03:16:27;98555.06;;;16.37;35.74
29467;BME280;60968;37.490;-122.288;2023-04-26T03:19:28;98562.44;;;16.29;36.20
29467;BME280;60968;37.490;-122.288;2023-04-26T03:22:28;98570.53;;;16.24;36.41
29467;BME280;60968;37.490;-122.288;2023-04-26T03:25:29;98572.38;;;16.22;36.50
29467;BME280;60968;37.490;-122.288;2023-04-26T03:28:33;98565.75;;;16.14;36.63
29467;BME280;60968;37.490;-122.288;2023-04-26T03:31:33;98570.69;;;16.01;36.86
29467;BME280;60968;37.490;-122.288;2023-04-26T03:34:34;98578.34;;;15.85;36.29
29467;BME280;60968;37.490;-122.288;2023-04-26T03:37:35;98574.25;;;15.77;35.81
29467;BME280;60968;37.490;-122.288;2023-04-26T03:40:37;98584.16;;;15.71;35.65
29467;BME280;60968;37.490;-122.288;2023-04-26T03:43:38;98575.66;;;15.66;35.99
29467;BME280;60968;37.490;-122.288;2023-04-26T03:46:39;98579.09;;;15.66;36.04
29467;BME280;60968;37.490;-122.288;2023-04-26T03:49:41;98579.25;;;15.63;35.98
29467;BME280;60968;37.490;-122.288;2023-04-26T03:52:42;98586.22;;;15.64;35.72
29467;BME280;60968;37.490;-122.288;2023-04-26T03:55:44;98593.63;;;15.54;35.91
29467;BME280;60968;37.490;-122.288;2023-04-26T03:58:45;98588.50;;;15.51;36.03
29467;BME280;60968;37.490;-122.288;2023-04-26T04:01:47;98598.06;;;15.52;36.65
29467;BME280;60968;37.490;-122.288;2023-04-26T04:04:48;98604.75;;;15.39;37.36
29467;BME280;60968;37.490;-122.288;2023-04-26T04:07:49;98605.69;;;15.14;38.71
29467;BME280;60968;37.490;-122.288;2023-04-26T04:10:51;98606.38;;;14.97;38.30
29467;BME280;60968;37.490;-122.288;2023-04-26T04:13:52;98609.63;;;14.80;39.12
29467;BME280;60968;37.490;-122.288;2023-04-26T04:16:53;98608.34;;;14.68;39.88
29467;BME280;60968;37.490;-122.288;2023-04-26T04:19:54;98606.97;;;14.56;40.02
29467;BME280;60968;37.490;-122.288;2023-04-26T04:22:55;98617.59;;;14.53;40.19
29467;BME280;60968;37.490;-122.288;2023-04-26T04:25:58;98621.09;;;14.52;41.77
29467;BME280;60968;37.490;-122.288;2023-04-26T04:29:01;98620.47;;;14.46;41.78
29467;BME280;60968;37.490;-122.288;2023-04-26T04:32:04;98627.78;;;14.37;42.16
29467;BME280;60968;37.490;-122.288;2023-04-26T04:35:07;98629.56;;;14.35;42.63
29467;BME280;60968;37.490;-122.288;2023-04-26T04:38:11;98635.16;;;14.26;42.19
29467;BME280;60968;37.490;-122.288;2023-04-26T04:41:13;98644.34;;;14.13;42.48
29467;BME280;60968;37.490;-122.288;2023-04-26T04:44:14;98643.16;;;13.96;42.73
29467;BME280;60968;37.490;-122.288;2023-04-26T04:47:19;98650.94;;;13.98;44.42
29467;BME280;60968;37.490;-122.288;2023-04-26T04:50:20;98653.72;;;13.93;45.09
29467;BME280;60968;37.490;-122.288;2023-04-26T04:53:21;98651.72;;;14.01;47.31
29467;BME280;60968;37.490;-122.288;2023-04-26T04:56:23;98659.75;;;13.97;50.91
29467;BME280;60968;37.490;-122.288;2023-04-26T04:59:24;98669.63;;;13.88;55.35
29467;BME280;60968;37.490;-122.288;2023-04-26T05:02:25;98664.72;;;13.78;62.43
29467;BME280;60968;37.490;-122.288;2023-04-26T05:05:26;98664.22;;;13.66;65.91
29467;BME280;60968;37.490;-122.288;2023-04-26T05:08:33;98669.72;;;13.59;71.47
29467;BME280;60968;37.490;-122.288;2023-04-26T05:11:34;98670.75;;;13.53;74.21
29467;BME280;60968;37.490;-122.288;2023-04-26T05:14:35;98669.19;;;13.47;78.23
29467;BME280;60968;37.490;-122.288;2023-04-26T05:17:37;98664.09;;;13.43;80.33
29467;BME280;60968;37.490;-122.288;2023-04-26T05:20:38;98659.97;;;13.34;83.33
29467;BME280;60968;37.490;-122.288;2023-04-26T05:23:39;98665.41;;;13.28;85.08
29467;BME280;60968;37.490;-122.288;2023-04-26T05:26:41;98671.69;;;13.22;85.38
29467;BME280;60968;37.490;-122.288;2023-04-26T05:29:41;98662.91;;;13.23;86.65
29467;BME280;60968;37.490;-122.288;2023-04-26T05:32:42;98669.72;;;13.29;87.38
29467;BME280;60968;37.490;-122.288;2023-04-26T05:35:43;98666.09;;;13.33;87.38
29467;BME280;60968;37.490;-122.288;2023-04-26T05:38:44;98665.13;;;13.37;87.34
29467;BME280;60968;37.490;-122.288;2023-04-26T05:41:45;98672.97;;;13.37;88.98
29467;BME280;60968;37.490;-122.288;2023-04-26T05:44:49;98670.38;;;13.37;88.63
29467;BME280;60968;37.490;-122.288;2023-04-26T05:47:50;98674.88;;;13.32;91.02
29467;BME280;60968;37.490;-122.288;2023-04-26T05:50:52;98674.88;;;13.30;90.32
29467;BME280;60968;37.490;-122.288;2023-04-26T05:53:53;98674.88;;;13.30;90.13
29467;BME280;60968;37.490;-122.288;2023-04-26T05:56:54;98676.94;;;13.20;90.47
29467;BME280;60968;37.490;-122.288;2023-04-26T05:59:55;98679.69;;;13.16;91.08
29467;BME280;60968;37.490;-122.288;2023-04-26T06:02:56;98672.16;;;13.05;92.53
29467;BME280;60968;37.490;-122.288;2023-04-26T06:05:58;98676.00;;;12.93;94.71
29467;BME280;60968;37.490;-122.288;2023-04-26T06:08:59;98676.25;;;12.84;95.19
29467;BME280;60968;37.490;-122.288;2023-04-26T06:12:00;98672.06;;;12.78;95.90
29467;BME280;60968;37.490;-122.288;2023-04-26T06:15:01;98673.09;;;12.73;96.60
29467;BME280;60968;37.490;-122.288;2023-04-26T06:18:06;98667.16;;;12.67;97.03
29467;BME280;60968;37.490;-122.288;2023-04-26T06:21:08;98674.91;;;12.70;93.61
29467;BME280;60968;37.490;-122.288;2023-04-26T06:24:11;98676.25;;;12.85;90.24
29467;BME280;60968;37.490;-122.288;2023-04-26T06:27:13;98663.59;;;13.00;86.31
29467;BME280;60968;37.490;-122.288;2023-04-26T06:30:14;98664.16;;;13.11;84.18
29467;BME280;60968;37.490;-122.288;2023-04-26T06:33:17;98669.19;;;13.17;81.46
29467;BME280;60968;37.490;-122.288;2023-04-26T06:36:18;98665.66;;;13.18;80.58
29467;BME280;60968;37.490;-122.288;2023-04-26T06:39:19;98663.09;;;13.17;78.34
29467;BME280;60968;37.490;-122.288;2023-04-26T06:42:23;98665.47;;;13.25;75.29
29467;BME280;60968;37.490;-122.288;2023-04-26T06:45:24;98670.53;;;13.31;73.23
29467;BME280;60968;37.490;-122.288;2023-04-26T06:48:26;98665.41;;;13.28;72.10
29467;BME280;60968;37.490;-122.288;2023-04-26T06:51:27;98671.53;;;13.27;72.08
29467;BME280;60968;37.490;-122.288;2023-04-26T06:54:29;98671.69;;;13.22;71.25
29467;BME280;60968;37.490;-122.288;2023-04-26T06:57:33;98667.50;;;13.16;71.44
29467;BME280;60968;37.490;-122.288;2023-04-26T07:00:34;98662.31;;;13.13;70.92
29467;BME280;60968;37.490;-122.288;2023-04-26T07:03:35;98659.72;;;13.13;69.85
29467;BME280;60968;37.490;-122.288;2023-04-26T07:06:45;98661.56;;;13.10;69.94
29467;BME280;60968;37.490;-122.288;2023-04-26T07:09:46;98666.84;;;13.08;70.93
29467;BME280;60968;37.490;-122.288;2023-04-26T07:12:48;98670.38;;;13.07;71.68
29467;BME280;60968;37.490;-122.288;2023-04-26T07:15:48;98667.84;;;13.04;71.18
29467;BME280;60968;37.490;-122.288;2023-04-26T07:18:51;98662.84;;;12.96;71.33
29467;BME280;60968;37.490;-122.288;2023-04-26T07:21:53;98669.19;;;12.87;72.65
29467;BME280;60968;37.490;-122.288;2023-04-26T07:24:54;98666.78;;;12.81;73.80
29467;BME280;60968;37.490;-122.288;2023-04-26T07:27:55;98666.91;;;12.75;74.16
29467;BME280;60968;37.490;-122.288;2023-04-26T07:30:57;98667.97;;;12.69;73.71
29467;BME280;60968;37.490;-122.288;2023-04-26T07:33:59;98666.41;;;12.62;73.24
29467;BME280;60968;37.490;-122.288;2023-04-26T07:37:00;98669.91;;;12.61;71.83
29467;BME280;60968;37.490;-122.288;2023-04-26T07:40:00;98661.28;;;12.59;71.22
29467;BME280;60968;37.490;-122.288;2023-04-26T07:43:01;98663.00;;;12.60;69.54
29467;BME280;60968;37.490;-122.288;2023-04-26T07:46:02;98663.00;;;12.60;69.17
29467;BME280;60968;37.490;-122.288;2023-04-26T07:49:04;98668.22;;;12.60;67.99
29467;BME280;60968;37.490;-122.288;2023-04-26T07:52:08;98669.16;;;12.58;68.09
29467;BME280;60968;37.490;-122.288;2023-04-26T07:55:10;98659.66;;;12.55;68.38
29467;BME280;60968;37.490;-122.288;2023-04-26T07:58:12;98657.28;;;12.46;71.98
29467;BME280;60968;37.490;-122.288;2023-04-26T08:01:12;98665.50;;;12.32;79.01
29467;BME280;60968;37.490;-122.288;2023-04-26T08:04:16;98668.44;;;12.20;84.16
29467;BME280;60968;37.490;-122.288;2023-04-26T08:07:18;98671.63;;;11.96;90.84
29467;BME280;60968;37.490;-122.288;2023-04-26T08:10:21;98673.63;;;11.85;93.45
29467;BME280;60968;37.490;-122.288;2023-04-26T08:13:22;98668.63;;;11.77;95.58
29467;BME280;60968;37.490;-122.288;2023-04-26T08:16:27;98671.34;;;11.71;96.37
29467;BME280;60968;37.490;-122.288;2023-04-26T08:19:28;98667.22;;;11.62;97.23
29467;BME280;60968;37.490;-122.288;2023-04-26T08:22:29;98670.00;;;11.56;97.86
29467;BME280;60968;37.490;-122.288;2023-04-26T08:25:30;98669.25;;;11.49;98.96
29467;BME280;60968;37.490;-122.288;2023-04-26T08:28:31;98663.38;;;11.41;100.00
29467;BME280;60968;37.490;-122.288;2023-04-26T08:31:32;98665.28;;;11.33;100.00
29467;BME280;60968;37.490;-122.288;2023-04-26T08:34:34;98661.09;;;11.26;100.00
29467;BME280;60968;37.490;-122.288;2023-04-26T08:37:35;98668.13;;;11.22;100.00
29467;BME280;60968;37.490;-122.288;2023-04-26T08:40:38;98666.50;;;11.16;100.00
29467;BME280;60968;37.490;-122.288;2023-04-26T08:43:41;98657.06;;;11.12;100.00
29467;BME280;60968;37.490;-122.288;2023-04-26T08:50:22;98659.75;;;11.08;100.00
29467;BME280;60968;37.490;-122.288;2023-04-26T08:53:24;98651.25;;;10.99;100.00
29467;BME280;60968;37.490;-122.288;2023-04-26T08:56:25;98646.97;;;10.97;100.00
29467;BME280;60968;37.490;-122.288;2023-04-26T08:59:26;98653.09;;;10.94;100.00
29467;BME280;60968;37.490;-122.288;2023-04-26T09:02:28;98647.97;;;10.91;100.00
29467;BME280;60968;37.490;-122.288;2023-04-26T09:05:29;98634.16;;;10.86;100.00
29467;BME280;60968;37.490;-122.288;2023-04-26T09:08:31;98638.50;;;10.86;100.00
29467;BME280;60968;37.490;-122.288;2023-04-26T09:11:56;98632.41;;;10.87;100.00
29467;BME280;60968;37.490;-122.288;2023-04-26T09:14:59;98636.91;;;10.78;100.00
29467;BME280;60968;37.490;-122.288;2023-04-26T09:18:15;98651.69;;;10.78;100.00
29467;BME280;60968;37.490;-122.288;2023-04-26T09:21:17;98635.25;;;10.74;100.00
29467;BME280;60968;37.490;-122.288;2023-04-26T09:24:18;98637.94;;;10.71;100.00
29467;BME280;60968;37.490;-122.288;2023-04-26T09:27:19;98642.19;;;10.75;100.00
29467;BME280;60968;37.490;-122.288;2023-04-26T09:30:20;98636.25;;;10.69;100.00
29467;BME280;60968;37.490;-122.288;2023-04-26T09:33:23;98631.06;;;10.67;100.00
29467;BME280;60968;37.490;-122.288;2023-04-26T09:36:24;98632.81;;;10.67;100.00
29467;BME280;60968;37.490;-122.288;2023-04-26T09:39:33;98635.47;;;10.65;100.00
29467;BME280;60968;37.490;-122.288;2023-04-26T09:42:35;98636.50;;;10.58;100.00
29467;BME280;60968;37.490;-122.288;2023-04-26T09:45:46;98636.63;;;10.50;100.00
29467;BME280;60968;37.490;-122.288;2023-04-26T09:48:59;98635.88;;;10.45;100.00
29467;BME280;60968;37.490;-122.288;2023-04-26T09:52:04;98644.66;;;10.39;100.00
29467;BME280;60968;37.490;-122.288;2023-04-26T09:55:06;98644.66;;;10.39;100.00
29467;BME280;60968;37.490;-122.288;2023-04-26T09:58:08;98638.66;;;10.36;100.00
29467;BME280;60968;37.490;-122.288;2023-04-26T10:01:10;98633.56;;;10.26;100.00
29467;BME280;60968;37.490;-122.288;2023-04-26T10:04:15;98641.50;;;10.20;100.00
29467;BME280;60968;37.490;-122.288;2023-04-26T10:07:18;98640.66;;;10.18;100.00
29467;BME280;60968;37.490;-122.288;2023-04-26T10:10:21;98642.38;;;10.19;100.00
29467;BME280;60968;37.490;-122.288;2023-04-26T10:13:22;98634.53;;;10.21;100.00
29467;BME280;60968;37.490;-122.288;2023-04-26T10:16:23;98644.94;;;10.22;100.00
29467;BME280;60968;37.490;-122.288;2023-04-26T10:19:24;98639.72;;;10.22;100.00
29467;BME280;60968;37.490;-122.288;2023-04-26T10:22:33;98635.38;;;10.23;100.00
29467;BME280;60968;37.490;-122.288;2023-04-26T10:25:40;98633.66;;;10.22;100.00
29467;BME280;60968;37.490;-122.288;2023-04-26T10:32:04;98629.31;;;10.24;100.00
29467;BME280;60968;37.490;-122.288;2023-04-26T10:35:11;98633.53;;;10.29;100.00
29467;BME280;60968;37.490;-122.288;2023-04-26T10:38:12;98630.00;;;10.35;100.00
29467;BME280;60968;37.490;-122.288;2023-04-26T10:44:58;98631.91;;;10.22;100.00
29467;BME280;60968;37.490;-122.288;2023-04-26T10:51:19;98642.63;;;10.05;100.00
29467;BME280;60968;37.490;-122.288;2023-04-26T10:54:20;98648.78;;;10.01;100.00
29467;BME280;60968;37.490;-122.288;2023-04-26T10:57:25;98648.91;;;9.95;100.00
29467;BME280;60968;37.490;-122.288;2023-04-26T11:01:07;98638.53;;;9.92;100.00
29467;BME280;60968;37.490;-122.288;2023-04-26T11:04:11;98641.19;;;9.90;100.00
29467;BME280;60968;37.490;-122.288;2023-04-26T11:07:12;98649.88;;;9.89;100.00
29467;BME280;60968;37.490;-122.288;2023-04-26T11:10:21;98647.25;;;9.89;100.00
29467;BME280;60968;37.490;-122.288;2023-04-26T11:13:22;98646.41;;;9.89;100.00
29467;BME280;60968;37.490;-122.288;2023-04-26T11:16:27;98645.56;;;9.87;100.00
29467;BME280;60968;37.490;-122.288;2023-04-26T11:19:30;98653.41;;;9.85;100.00
29467;BME280;60968;37.490;-122.288;2023-04-26T11:22:32;98650.84;;;9.82;100.00
29467;BME280;60968;37.490;-122.288;2023-04-26T11:25:38;98645.66;;;9.82;100.00
29467;BME280;60968;37.490;-122.288;2023-04-26T11:28:39;98651.69;;;9.84;100.00
29467;BME280;60968;37.490;-122.288;2023-04-26T11:31:40;98650.00;;;9.80;100.00
29467;BME280;60968;37.490;-122.288;2023-04-26T11:34:40;98649.19;;;9.78;100.00
29467;BME280;60968;37.490;-122.288;2023-04-26T11:37:45;98656.16;;;9.74;100.00
29467;BME280;60968;37.490;-122.288;2023-04-26T11:41:01;98652.72;;;9.74;100.00
29467;BME280;60968;37.490;-122.288;2023-04-26T11:44:02;98650.13;;;9.74;100.00
29467;BME280;60968;37.490;-122.288;2023-04-26T11:47:05;98648.38;;;9.74;100.00
29467;BME280;60968;37.490;-122.288;2023-04-26T11:50:07;98644.09;;;9.70;100.00
29467;BME280;60968;37.490;-122.288;2023-04-26T11:53:08;98642.44;;;9.68;100.00
29467;BME280;60968;37.490;-122.288;2023-04-26T11:56:17;98638.94;;;9.67;100.00
29467;BME280;60968;37.490;-122.288;2023-04-26T11:59:29;98648.44;;;9.70;100.00
29467;BME280;60968;37.490;-122.288;2023-04-26T12:02:34;98645.81;;;9.71;100.00
29467;BME280;60968;37.490;-122.288;2023-04-26T12:05:35;98645.81;;;9.71;100.00
29467;BME280;60968;37.490;-122.288;2023-04-26T12:08:36;98639.72;;;9.74;100.00
29467;BME280;60968;37.490;-122.288;2023-04-26T12:11:38;98639.69;;;9.75;100.00
29467;BME280;60968;37.490;-122.288;2023-04-26T12:14:39;98643.13;;;9.76;100.00
29467;BME280;60968;37.490;-122.288;2023-04-26T12:21:08;98652.72;;;9.74;100.00
29467;BME280;60968;37.490;-122.288;2023-04-26T12:24:28;98643.25;;;9.70;100.00
29467;BME280;60968;37.490;-122.288;2023-04-26T12:27:30;98650.25;;;9.66;100.00
29467;BME280;60968;37.490;-122.288;2023-04-26T12:30:31;98652.06;;;9.61;100.00
29467;BME280;60968;37.490;-122.288;2023-04-26T12:33:33;98656.41;;;9.59;100.00
29467;BME280;60968;37.490;-122.288;2023-04-26T12:36:35;98646.91;;;9.59;100.00
29467;BME280;60968;37.490;-122.288;2023-04-26T12:39:37;98647.75;;;9.60;100.00
29467;BME280;60968;37.490;-122.288;2023-04-26T12:42:38;98650.34;;;9.60;100.00
29467;BME280;60968;37.490;-122.288;2023-04-26T12:45:39;98646.91;;;9.59;100.00
29467;BME280;60968;37.490;-122.288;2023-04-26T12:48:40;98655.53;;;9.61;100.00
29467;BME280;60968;37.490;-122.288;2023-04-26T12:51:41;98652.88;;;9.66;100.00
29467;BME280;60968;37.490;-122.288;2023-04-26T12:54:43;98654.50;;;9.70;100.00
29467;BME280;60968;37.490;-122.288;2023-04-26T12:57:44;98648.44;;;9.70;100.00
29467;BME280;60968;37.490;-122.288;2023-04-26T13:00:45;98652.81;;;9.69;100.00
29467;BME280;60968;37.490;-122.288;2023-04-26T13:03:46;98658.84;;;9.70;100.00
29467;BME280;60968;37.490;-122.288;2023-04-26T13:06:48;98658.06;;;9.66;100.00
29467;BME280;60968;37.490;-122.288;2023-04-26T13:09:49;98664.16;;;9.65;100.00
29467;BME280;60968;37.490;-122.288;2023-04-26T13:12:50;98662.38;;;9.67;100.00
29467;BME280;60968;37.490;-122.288;2023-04-26T13:15:52;98657.16;;;9.67;100.00
29467;BME280;60968;37.490;-122.288;2023-04-26T13:18:53;98666.66;;;9.70;100.00
29467;BME280;60968;37.490;-122.288;2023-04-26T13:21:55;98672.72;;;9.72;100.00
29467;BME280;60968;37.490;-122.288;2023-04-26T13:24:57;98670.94;;;9.74;100.00
29467;BME280;60968;37.490;-122.288;2023-04-26T13:27:58;98678.78;;;9.72;100.00
29467;BME280;60968;37.490;-122.288;2023-04-26T13:30:59;98677.88;;;9.75;100.00
29467;BME280;60968;37.490;-122.288;2023-04-26T13:34:02;98678.66;;;9.78;100.00
29467;BME280;60968;37.490;-122.288;2023-04-26T13:37:03;98686.44;;;9.80;100.00
29467;BME280;60968;37.490;-122.288;2023-04-26T13:40:04;98681.22;;;9.83;100.00
29467;BME280;60968;37.490;-122.288;2023-04-26T13:43:05;98688.06;;;9.89;100.00
29467;BME280;60968;37.490;-122.288;2023-04-26T13:46:07;98687.97;;;9.93;100.00
29467;BME280;60968;37.490;-122.288;2023-04-26T13:49:08;98680.09;;;9.96;100.00
29467;BME280;60968;37.490;-122.288;2023-04-26T13:52:10;98683.47;;;10.03;100.00
29467;BME280;60968;37.490;-122.288;2023-04-26T13:55:11;98685.94;;;10.09;100.00
29467;BME280;60968;37.490;-122.288;2023-04-26T13:58:12;98683.25;;;10.16;100.00
29467;BME280;60968;37.490;-122.288;2023-04-26T14:01:13;98693.50;;;10.25;100.00
29467;BME280;60968;37.490;-122.288;2023-04-26T14:04:16;98695.97;;;10.34;100.00
29467;BME280;60968;37.490;-122.288;2023-04-26T14:07:18;98701.00;;;10.45;100.00
29467;BME280;60968;37.490;-122.288;2023-04-26T14:10:19;98703.44;;;10.53;100.00
29467;BME280;60968;37.490;-122.288;2023-04-26T14:13:20;98700.63;;;10.63;100.00
29467;BME280;60968;37.490;-122.288;2023-04-26T14:16:24;98699.53;;;10.75;100.00
29467;BME280;60968;37.490;-122.288;2023-04-26T14:19:27;98708.03;;;10.85;100.00
29467;BME280;60968;37.490;-122.288;2023-04-26T14:22:28;98706.06;;;10.96;100.00
29467;BME280;60968;37.490;-122.288;2023-04-26T14:25:29;98707.50;;;11.11;100.00
29467;BME280;60968;37.490;-122.288;2023-04-26T14:28:30;98710.84;;;11.18;100.00
29467;BME280;60968;37.490;-122.288;2023-04-26T14:31:35;98710.66;;;11.26;100.00
29467;BME280;60968;37.490;-122.288;2023-04-26T14:34:36;98714.66;;;11.42;100.00
29467;BME280;60968;37.490;-122.288;2023-04-26T14:37:37;98721.22;;;11.59;100.00
29467;BME280;60968;37.490;-122.288;2023-04-26T14:40:39;98727.84;;;11.74;100.00
29467;BME280;60968;37.490;-122.288;2023-04-26T14:43:42;98734.22;;;12.01;100.00
29467;BME280;60968;37.490;-122.288;2023-04-26T14:46:46;98734.06;;;13.36;100.00
29467;BME280;60968;37.490;-122.288;2023-04-26T14:49:47;98725.44;;;16.29;100.00
29467;BME280;60968;37.490;-122.288;2023-04-26T14:52:48;98727.94;;;18.77;83.66
29467;BME280;60968;37.490;-122.288;2023-04-26T14:55:59;98724.31;;;20.39;70.15
29467;BME280;60968;37.490;-122.288;2023-04-26T14:59:04;98717.03;;;21.02;63.97
29467;BME280;60968;37.490;-122.288;2023-04-26T15:02:04;98727.06;;;22.22;59.67
29467;BME280;60968;37.490;-122.288;2023-04-26T15:05:08;98724.44;;;23.26;54.18
29467;BME280;60968;37.490;-122.288;2023-04-26T15:08:10;98728.97;;;23.37;51.20
29467;BME280;60968;37.490;-122.288;2023-04-26T15:11:11;98726.97;;;24.38;49.06
29467;BME280;60968;37.490;-122.288;2023-04-26T15:14:15;98727.94;;;24.83;47.47
29467;BME280;60968;37.490;-122.288;2023-04-26T15:17:16;98725.66;;;25.24;43.55
29467;BME280;60968;37.490;-122.288;2023-04-26T15:20:22;98733.19;;;25.97;42.03
29467;BME280;60968;37.490;-122.288;2023-04-26T15:23:24;98737.94;;;26.26;41.29
29467;BME280;60968;37.490;-122.288;2023-04-26T15:26:26;98739.75;;;25.93;41.22
29467;BME280;60968;37.490;-122.288;2023-04-26T15:29:30;98735.59;;;26.00;39.33
29467;BME280;60968;37.490;-122.288;2023-04-26T15:32:31;98737.75;;;26.50;40.52
29467;BME280;60968;37.490;-122.288;2023-04-26T15:35:33;98740.19;;;24.97;40.74
29467;BME280;60968;37.490;-122.288;2023-04-26T15:38:34;98739.47;;;26.40;39.79
29467;BME280;60968;37.490;-122.288;2023-04-26T15:41:42;98736.84;;;25.41;40.32
29467;BME280;60968;37.490;-122.288;2023-04-26T15:44:42;98738.91;;;25.48;40.50